Disclaimer

Please do not use the information listed here in-flight or in-navigation, as they are not provided to us by the airports but are provided by volunteers, so they might be outdated.

Search


Regions


Airport information page

Radio informations:
Tower (TWR) - 121.2 MHz
Approach (APP) - 121.2 MHz

Airport informations:
Latitude: 08° 26' 24.76" N
Longitude: 004° 29' 38.11" E
Elevation: 1126 feet - 343 meters
Operating hours: Remarks
Operating agency: Civil government, landing fees and diplomatic clearance may be required
Timezone: UTC+1
Fuel: Jet A1, without icing nhibitor.

Runway information:
05/23 - 10169 x 197 feet< - >3100 x 60 meters

Recent METARs:
DNIL 160800Z 00000KT 5000 HZ NSC 24/19 Q1016
DNIL 160800Z 00000KT 5000 HZ NSC 24/19 Q1016
DNIL 160800Z 00000KT 5000 HZ NSC 24/19 Q1016

Airport on the map: